LEST Airport Information

Runway Information
Runway 17 Length 10499 ft width 148 ft
Elevation 1170 ft Threshold 394 ft Heading 166
Runway 35 Length 10499 ft Width 148 ft
Elevation 1196 ft Threshold 0 ft Heading 346
Airport Frequencies
Type APP Name APP Frequency 118.2 MHZ
Type GND Name GND Frequency 121.7 MHZ
Type TWR Name TWR Frequency 118.75 MHZ
Airport Navaids
Type NDB Name Santiago Frequency 417 KHZ
Type VOR-DME Name Santiago Frequency 116400 KHZ
Airport Weather Information & NOTAM
ADDS - METARS form results

(0339 UTC 28 May 2022)
Data provider http://aviationweather.gov/metar/data/
 
METAR text: LEST 280330Z 09007KT CAVOK 16/10 Q1015 NOSIG
Conditions at: LEST (SANTIAGO/LABACOL, ES) observed 0330 UTC 28 May 2022
Temperature: 16.0°C (61°F)
Dewpoint: 10.0°C (50°F) [RH = 68%]
Pressure (altimeter): 29.97 inches Hg (1015.0 mb)
Winds: from the E (90 degrees) at 8 MPH (7 knots; 3.6 m/s)
Visibility: 6 or more miles (10+ km)
Ceiling: ceiling and visibility are OK
Clouds: unknown
Weather: no significant weather observed at this time

METAR text: LEST 280300Z 09006KT 060V120 CAVOK 16/10 Q1016 NOSIG
Conditions at: LEST (SANTIAGO/LABACOL, ES) observed 0300 UTC 28 May 2022
Temperature: 16.0°C (61°F)
Dewpoint: 10.0°C (50°F) [RH = 68%]
Pressure (altimeter): 30.00 inches Hg (1016.0 mb)
Winds: from the E (90 degrees) at 7 MPH (6 knots; 3.1 m/s)
Visibility: 6 or more miles (10+ km)
Ceiling: ceiling and visibility are OK
Clouds: unknown
Weather: no significant weather observed at this time

Forecast for: LEST (SANTIAGO/LABACOL, ES)
Text: TAF LEST 272300Z 2800/2824 09008KT CAVOK TX31/2815Z TN15/2801Z
Forecast period: 0000 UTC 28 May 2022 to 0000 UTC 29 May 2022
Forecast type: FROM: standard forecast or significant change
Winds: from the E (90 degrees) at 9 MPH (8 knots; 4.1 m/s)
Visibility: 6 or more miles (10+ km)
Ceiling: unknown
Clouds: missing
Weather: no significant weather forecast for this period